createdAt,value
2023-03-06T00:02:57.988Z,12.27
2023-03-06T00:08:00.210Z,11.85
2023-03-06T00:13:05.629Z,10.87
2023-03-06T00:18:08.475Z,12.30
2023-03-06T00:23:11.063Z,11.15
2023-03-06T00:28:15.790Z,10.95
2023-03-06T00:33:18.133Z,10.77
2023-03-06T00:38:20.282Z,10.87
2023-03-06T00:43:22.347Z,10.27
2023-03-06T00:48:24.496Z,9.55
2023-03-06T00:53:26.657Z,9.75
2023-03-06T00:58:28.753Z,10.25
2023-03-06T01:03:30.870Z,10.37
2023-03-06T01:08:33.098Z,10.27
2023-03-06T01:13:35.371Z,10.35
2023-03-06T01:18:37.853Z,9.68
2023-03-06T01:23:40.379Z,10.43
2023-03-06T01:28:42.517Z,10.90
2023-03-06T01:33:45.406Z,10.82
2023-03-06T01:38:47.531Z,9.27
2023-03-06T01:43:49.927Z,9.25
2023-03-06T01:49:00.994Z,8.60
2023-03-06T01:54:08.997Z,9.33
2023-03-06T01:59:11.319Z,11.07
2023-03-06T02:04:14.105Z,9.05
2023-03-06T02:09:16.623Z,8.13
2023-03-06T02:14:18.775Z,9.23
2023-03-06T02:19:33.427Z,9.40
2023-03-06T02:24:58.483Z,10.95
2023-03-06T02:30:00.794Z,8.80
2023-03-06T02:35:04.011Z,11.40
2023-03-06T02:40:14.585Z,9.23
2023-03-06T02:45:23.765Z,10.03
2023-03-06T02:50:25.881Z,9.60
2023-03-06T02:55:27.949Z,9.32
2023-03-06T03:00:30.956Z,10.75
2023-03-06T03:05:33.306Z,11.88
2023-03-06T03:10:35.405Z,9.27
2023-03-06T03:15:37.553Z,10.50
2023-03-06T03:20:43.276Z,10.32
2023-03-06T03:25:45.414Z,10.00
2023-03-06T03:30:47.626Z,10.85
2023-03-06T03:35:57.277Z,11.07
2023-03-06T03:41:01.650Z,10.00
2023-03-06T03:46:03.980Z,9.45
2023-03-06T03:51:12.204Z,12.00
2023-03-06T03:56:14.367Z,10.65
2023-03-06T04:01:16.473Z,14.43
2023-03-06T04:06:19.083Z,9.63
2023-03-06T04:11:21.228Z,11.10
2023-03-06T04:16:23.510Z,10.68
2023-03-06T04:21:25.987Z,10.82
2023-03-06T04:26:28.108Z,11.27
2023-03-06T04:31:30.369Z,11.32
2023-03-06T04:36:34.441Z,10.50
2023-03-06T04:41:36.598Z,12.43
2023-03-06T04:46:38.921Z,13.18
2023-03-06T04:51:41.125Z,11.20
2023-03-06T04:56:43.229Z,11.95
2023-03-06T05:01:45.420Z,11.00
2023-03-06T05:06:47.570Z,12.95
2023-03-06T05:11:49.658Z,13.23
2023-03-06T05:16:51.744Z,11.23
2023-03-06T05:21:53.880Z,11.13
2023-03-06T05:26:56.054Z,13.73
2023-03-06T05:31:58.992Z,14.23
2023-03-06T05:37:01.822Z,13.17
2023-03-06T05:42:04.186Z,12.13
2023-03-06T05:47:06.382Z,14.00
2023-03-06T05:52:09.648Z,15.10
2023-03-06T05:57:11.973Z,11.70
2023-03-06T06:02:15.405Z,12.27
2023-03-06T06:07:17.744Z,13.55
2023-03-06T06:12:20.473Z,13.47
2023-03-06T06:17:22.772Z,13.73
2023-03-06T06:22:30.945Z,11.30
2023-03-06T06:27:33.149Z,13.57
2023-03-06T06:32:36.321Z,16.60
2023-03-06T06:37:38.542Z,15.23
2023-03-06T06:42:40.900Z,12.82
2023-03-06T06:47:43.622Z,15.93
2023-03-06T06:52:45.891Z,14.30
2023-03-06T06:57:47.981Z,16.23
2023-03-06T07:02:51.279Z,15.13
2023-03-06T07:07:53.394Z,15.30
2023-03-06T07:12:56.812Z,14.32
2023-03-06T07:18:00.745Z,16.17
2023-03-06T07:23:03.891Z,18.77
2023-03-06T07:28:06.112Z,16.10
2023-03-06T07:33:08.824Z,17.48
2023-03-06T07:38:11.534Z,16.73
2023-03-06T07:43:19.512Z,16.93
2023-03-06T07:48:21.993Z,18.87
2023-03-06T07:53:24.778Z,13.77
2023-03-06T07:58:26.940Z,13.90
2023-03-06T08:03:29.164Z,14.52
2023-03-06T08:08:31.312Z,15.20
2023-03-06T08:13:33.805Z,14.95
2023-03-06T08:18:39.615Z,16.20
2023-03-06T08:23:43.067Z,14.30
2023-03-06T08:28:47.649Z,17.25
2023-03-06T08:33:49.741Z,16.57
2023-03-06T08:38:52.453Z,15.98
2023-03-06T08:43:54.651Z,18.23
2023-03-06T08:48:57.156Z,18.17
2023-03-06T08:53:59.562Z,20.42
2023-03-06T08:59:03.897Z,18.13
2023-03-06T09:04:09.235Z,19.15
2023-03-06T09:09:13.271Z,17.90
2023-03-06T09:14:15.384Z,23.05
2023-03-06T09:19:17.841Z,17.40
2023-03-06T09:24:20.102Z,16.90
2023-03-06T09:29:22.224Z,16.50
2023-03-06T09:34:24.416Z,17.10
2023-03-06T09:39:27.333Z,16.33
2023-03-06T09:44:32.430Z,18.02
2023-03-06T09:49:48.364Z,17.17
2023-03-06T09:54:57.282Z,18.35
2023-03-06T10:00:05.727Z,17.43
2023-03-06T10:05:15.495Z,17.55
2023-03-06T10:10:24.094Z,17.62
2023-03-06T10:15:32.703Z,15.23
2023-03-06T10:20:41.319Z,16.60
2023-03-06T10:26:02.347Z,19.57
2023-03-06T10:31:25.025Z,23.40
2023-03-06T10:36:28.720Z,22.73
2023-03-06T10:41:35.810Z,19.97
2023-03-06T10:46:44.529Z,21.58
2023-03-06T10:52:21.699Z,18.33
2023-03-06T10:57:31.363Z,17.58
2023-03-06T11:02:41.023Z,18.35
2023-03-06T11:08:00.267Z,18.17
2023-03-06T11:13:09.009Z,17.20
2023-03-06T11:18:11.081Z,17.77
2023-03-06T11:23:18.038Z,20.27
2023-03-06T11:28:40.863Z,18.95
2023-03-06T11:33:48.911Z,19.00
2023-03-06T11:38:53.327Z,20.67
2023-03-06T11:44:17.947Z,19.13
2023-03-06T11:49:27.642Z,19.37
2023-03-06T11:54:30.033Z,19.33
2023-03-06T11:59:55.809Z,20.23
2023-03-06T12:05:22.667Z,19.83
2023-03-06T12:10:51.734Z,20.07
2023-03-06T12:15:54.357Z,17.50
2023-03-06T12:21:18.314Z,21.20
2023-03-06T12:26:51.449Z,25.83
2023-03-06T12:32:03.541Z,22.02
2023-03-06T12:37:20.855Z,18.13
2023-03-06T12:42:25.926Z,19.23
2023-03-06T12:47:31.516Z,20.08
2023-03-06T12:52:34.703Z,20.73
2023-03-06T12:57:36.832Z,23.40
2023-03-06T13:03:14.563Z,20.73
2023-03-06T13:08:38.222Z,22.15
2023-03-06T13:13:45.780Z,20.77
2023-03-06T13:19:00.843Z,26.73
2023-03-06T13:24:06.306Z,23.90
2023-03-06T13:29:36.425Z,22.30
2023-03-06T13:34:40.486Z,21.42
2023-03-06T13:40:15.243Z,20.70
2023-03-06T13:45:27.467Z,22.03
2023-03-06T13:50:37.956Z,21.98
2023-03-06T13:55:58.718Z,23.47
2023-03-06T14:01:27.940Z,22.17
2023-03-06T14:06:36.366Z,22.15
2023-03-06T14:11:50.482Z,22.87
2023-03-06T14:16:53.687Z,25.52
2023-03-06T14:21:57.702Z,24.83
2023-03-06T14:27:00.155Z,22.05
2023-03-06T14:32:02.819Z,24.63
2023-03-06T14:37:19.124Z,22.83
2023-03-06T14:42:25.176Z,21.80
2023-03-06T14:47:33.273Z,26.00
2023-03-06T14:52:36.431Z,23.17
2023-03-06T14:57:38.734Z,21.65
2023-03-06T15:02:41.185Z,24.07
2023-03-06T15:07:43.986Z,23.87
2023-03-06T15:12:50.812Z,25.47
2023-03-06T15:17:53.522Z,22.58
2023-03-06T15:22:55.661Z,25.02
2023-03-06T15:27:59.193Z,27.00
2023-03-06T15:33:18.502Z,23.83
2023-03-06T15:38:37.042Z,24.97
2023-03-06T15:43:41.000Z,23.30
2023-03-06T15:49:04.258Z,21.23
2023-03-06T15:54:12.196Z,27.17
2023-03-06T15:59:25.998Z,24.10
2023-03-06T16:04:28.156Z,22.20
2023-03-06T16:09:30.278Z,21.83
2023-03-06T16:14:32.568Z,21.87
2023-03-06T16:19:34.780Z,21.40
2023-03-06T16:24:37.295Z,22.50
2023-03-06T16:29:40.071Z,23.27
2023-03-06T16:34:42.175Z,23.08
2023-03-06T16:39:44.781Z,22.05
2023-03-06T16:44:47.031Z,20.60
2023-03-06T16:49:49.900Z,23.42
2023-03-06T16:54:52.110Z,23.33
2023-03-06T16:59:54.195Z,23.20
2023-03-06T17:04:56.341Z,22.75
2023-03-06T17:09:58.445Z,20.87
2023-03-06T17:15:03.078Z,23.05
2023-03-06T17:20:08.119Z,23.03
2023-03-06T17:25:10.566Z,24.05
2023-03-06T17:30:16.306Z,22.23
2023-03-06T17:35:18.933Z,25.37
2023-03-06T17:40:21.054Z,26.23
2023-03-06T17:45:23.591Z,25.20
2023-03-06T17:50:25.664Z,25.23
2023-03-06T17:55:28.973Z,26.62
2023-03-06T18:00:31.178Z,29.03
2023-03-06T18:05:33.327Z,26.65
2023-03-06T18:10:38.231Z,26.37
2023-03-06T18:15:40.923Z,24.95
2023-03-06T18:20:44.712Z,25.60
2023-03-06T18:25:48.777Z,23.20
2023-03-06T18:30:50.911Z,26.55
2023-03-06T18:35:53.619Z,24.80
2023-03-06T18:40:55.800Z,25.70
2023-03-06T18:45:58.644Z,27.13
2023-03-06T18:51:09.271Z,27.00
2023-03-06T18:56:22.030Z,28.65
2023-03-06T19:01:30.871Z,26.93
2023-03-06T19:06:33.290Z,25.85
2023-03-06T19:11:38.195Z,25.35
2023-03-06T19:16:40.881Z,28.87
2023-03-06T19:21:45.464Z,27.13
2023-03-06T19:26:47.679Z,26.87
2023-03-06T19:31:52.455Z,26.40
2023-03-06T19:36:55.079Z,26.48
2023-03-06T19:41:57.316Z,23.37
2023-03-06T19:46:59.545Z,32.22
2023-03-06T19:52:02.132Z,28.17
2023-03-06T19:57:04.282Z,26.95
2023-03-06T20:02:06.686Z,28.60
2023-03-06T20:07:08.906Z,26.50
2023-03-06T20:12:11.105Z,27.85
2023-03-06T20:17:13.295Z,30.60
2023-03-06T20:22:15.591Z,28.52
2023-03-06T20:27:17.830Z,29.55
2023-03-06T20:32:20.068Z,31.33
2023-03-06T20:37:22.227Z,31.05
2023-03-06T20:42:24.350Z,31.57
2023-03-06T20:47:27.010Z,29.87
2023-03-06T20:52:29.257Z,30.50
2023-03-06T20:57:31.366Z,29.80
2023-03-06T21:02:33.568Z,30.75
2023-03-06T21:07:36.043Z,33.37
2023-03-06T21:12:38.120Z,33.28
2023-03-06T21:17:40.190Z,31.50
2023-03-06T21:22:42.256Z,30.87
2023-03-06T21:27:44.405Z,31.02
2023-03-06T21:32:46.796Z,33.50
2023-03-06T21:37:49.246Z,34.45
2023-03-06T21:42:51.715Z,31.83
2023-03-06T21:47:53.857Z,28.13
2023-03-06T21:52:59.116Z,30.85
2023-03-06T21:58:01.562Z,32.73
2023-03-06T22:03:04.910Z,32.83
2023-03-06T22:08:07.140Z,34.95
2023-03-06T22:13:11.282Z,29.67
2023-03-06T22:18:15.955Z,33.90
2023-03-06T22:23:18.617Z,34.33
2023-03-06T22:29:03.298Z,34.80
2023-03-06T22:34:10.396Z,33.70
2023-03-06T22:39:17.650Z,34.67
2023-03-06T22:44:32.424Z,35.25
2023-03-06T23:20:52.061Z,35.47
2023-03-06T23:26:02.052Z,35.83
2023-03-06T23:31:15.318Z,35.80
2023-03-06T23:36:18.758Z,32.93
2023-03-06T23:41:24.089Z,34.25
2023-03-06T23:46:26.562Z,35.97
2023-03-06T23:51:28.705Z,37.10
2023-03-06T23:56:30.860Z,36.35
